sensor_id;sensor_type;location;lat;lon;timestamp;temperature;humidity
16907;DHT22;8570;52.380;4.654;2022-09-27T00:01:48;11.60;99.90
16907;DHT22;8570;52.380;4.654;2022-09-27T00:06:52;11.60;99.90
16907;DHT22;8570;52.380;4.654;2022-09-27T00:11:54;11.60;99.90
16907;DHT22;8570;52.380;4.654;2022-09-27T00:16:56;11.50;99.90
16907;DHT22;8570;52.380;4.654;2022-09-27T00:21:59;11.50;99.90
16907;DHT22;8570;52.380;4.654;2022-09-27T00:27:03;11.50;99.90
16907;DHT22;8570;52.380;4.654;2022-09-27T00:32:05;11.50;99.90
16907;DHT22;8570;52.380;4.654;2022-09-27T00:37:09;11.50;99.90
16907;DHT22;8570;52.380;4.654;2022-09-27T00:42:12;11.50;99.90
16907;DHT22;8570;52.380;4.654;2022-09-27T00:47:18;11.50;99.90
16907;DHT22;8570;52.380;4.654;2022-09-27T00:52:27;11.40;99.90
16907;DHT22;8570;52.380;4.654;2022-09-27T00:57:30;11.50;99.90
16907;DHT22;8570;52.380;4.654;2022-09-27T01:02:32;11.50;99.90
16907;DHT22;8570;52.380;4.654;2022-09-27T01:07:37;11.50;99.90
16907;DHT22;8570;52.380;4.654;2022-09-27T01:12:48;11.50;99.90
16907;DHT22;8570;52.380;4.654;2022-09-27T01:18:14;11.50;99.90
16907;DHT22;8570;52.380;4.654;2022-09-27T01:23:44;11.60;99.90
16907;DHT22;8570;52.380;4.654;2022-09-27T01:28:56;11.60;99.90
16907;DHT22;8570;52.380;4.654;2022-09-27T01:34:06;11.60;99.90
16907;DHT22;8570;52.380;4.654;2022-09-27T01:39:21;11.60;99.90
16907;DHT22;8570;52.380;4.654;2022-09-27T01:44:33;11.50;99.90
16907;DHT22;8570;52.380;4.654;2022-09-27T01:49:41;11.50;99.90
16907;DHT22;8570;52.380;4.654;2022-09-27T01:54:52;11.40;99.90
16907;DHT22;8570;52.380;4.654;2022-09-27T01:59:58;11.30;99.90
16907;DHT22;8570;52.380;4.654;2022-09-27T02:10:10;11.20;99.90
16907;DHT22;8570;52.380;4.654;2022-09-27T02:15:14;11.20;99.90
16907;DHT22;8570;52.380;4.654;2022-09-27T02:20:21;11.10;99.90
16907;DHT22;8570;52.380;4.654;2022-09-27T02:25:33;11.10;99.90
16907;DHT22;8570;52.380;4.654;2022-09-27T02:30:35;11.10;99.90
16907;DHT22;8570;52.380;4.654;2022-09-27T02:35:39;11.20;99.90
16907;DHT22;8570;52.380;4.654;2022-09-27T02:40:43;11.20;99.90
16907;DHT22;8570;52.380;4.654;2022-09-27T02:45:55;11.20;99.90
16907;DHT22;8570;52.380;4.654;2022-09-27T02:51:16;11.30;99.90
16907;DHT22;8570;52.380;4.654;2022-09-27T02:56:24;11.20;99.90
16907;DHT22;8570;52.380;4.654;2022-09-27T03:01:30;11.30;99.90
16907;DHT22;8570;52.380;4.654;2022-09-27T03:06:41;11.30;99.90
16907;DHT22;8570;52.380;4.654;2022-09-27T03:11:45;11.20;99.90
16907;DHT22;8570;52.380;4.654;2022-09-27T03:16:48;11.30;99.90
16907;DHT22;8570;52.380;4.654;2022-09-27T03:21:51;11.30;99.90
16907;DHT22;8570;52.380;4.654;2022-09-27T03:26:53;11.30;99.90
16907;DHT22;8570;52.380;4.654;2022-09-27T03:31:55;11.30;99.90
16907;DHT22;8570;52.380;4.654;2022-09-27T03:36:58;11.30;99.90
16907;DHT22;8570;52.380;4.654;2022-09-27T03:42:00;11.20;99.90
16907;DHT22;8570;52.380;4.654;2022-09-27T03:47:02;11.10;99.90
16907;DHT22;8570;52.380;4.654;2022-09-27T03:52:05;11.00;99.90
16907;DHT22;8570;52.380;4.654;2022-09-27T03:57:07;10.90;99.90
16907;DHT22;8570;52.380;4.654;2022-09-27T04:02:09;10.90;99.90
16907;DHT22;8570;52.380;4.654;2022-09-27T04:07:12;10.80;99.90
16907;DHT22;8570;52.380;4.654;2022-09-27T04:12:14;10.80;99.90
16907;DHT22;8570;52.380;4.654;2022-09-27T04:17:16;10.80;99.90
16907;DHT22;8570;52.380;4.654;2022-09-27T04:22:19;10.90;99.90
16907;DHT22;8570;52.380;4.654;2022-09-27T04:27:21;10.80;99.90
16907;DHT22;8570;52.380;4.654;2022-09-27T04:32:23;10.80;99.90
16907;DHT22;8570;52.380;4.654;2022-09-27T04:37:26;10.70;99.90
16907;DHT22;8570;52.380;4.654;2022-09-27T04:42:28;10.80;99.90
16907;DHT22;8570;52.380;4.654;2022-09-27T04:52:35;10.70;99.90
16907;DHT22;8570;52.380;4.654;2022-09-27T04:57:36;10.70;99.90
16907;DHT22;8570;52.380;4.654;2022-09-27T05:02:38;10.70;99.90
16907;DHT22;8570;52.380;4.654;2022-09-27T05:07:41;10.70;99.90
16907;DHT22;8570;52.380;4.654;2022-09-27T05:12:43;10.70;99.90
16907;DHT22;8570;52.380;4.654;2022-09-27T05:17:45;10.70;99.90
16907;DHT22;8570;52.380;4.654;2022-09-27T05:22:48;10.70;99.90
16907;DHT22;8570;52.380;4.654;2022-09-27T05:27:50;10.90;99.90
16907;DHT22;8570;52.380;4.654;2022-09-27T05:32:52;11.10;99.90
16907;DHT22;8570;52.380;4.654;2022-09-27T05:37:57;11.20;99.90
16907;DHT22;8570;52.380;4.654;2022-09-27T05:42:59;11.70;99.90
16907;DHT22;8570;52.380;4.654;2022-09-27T05:48:01;12.10;99.90
16907;DHT22;8570;52.380;4.654;2022-09-27T05:53:06;12.00;99.90
16907;DHT22;8570;52.380;4.654;2022-09-27T05:58:09;11.70;99.90
16907;DHT22;8570;52.380;4.654;2022-09-27T06:03:13;11.50;99.90
16907;DHT22;8570;52.380;4.654;2022-09-27T06:08:17;11.40;99.90
16907;DHT22;8570;52.380;4.654;2022-09-27T06:13:20;11.30;99.90
16907;DHT22;8570;52.380;4.654;2022-09-27T06:18:22;11.20;99.90
16907;DHT22;8570;52.380;4.654;2022-09-27T06:23:25;11.30;99.90
16907;DHT22;8570;52.380;4.654;2022-09-27T06:28:27;11.20;99.90
16907;DHT22;8570;52.380;4.654;2022-09-27T06:33:29;11.20;99.90
16907;DHT22;8570;52.380;4.654;2022-09-27T06:38:32;11.20;99.90
16907;DHT22;8570;52.380;4.654;2022-09-27T06:43:36;11.20;99.90
16907;DHT22;8570;52.380;4.654;2022-09-27T06:48:39;11.20;99.90
16907;DHT22;8570;52.380;4.654;2022-09-27T06:53:43;11.20;99.90
16907;DHT22;8570;52.380;4.654;2022-09-27T06:58:45;11.20;99.90
16907;DHT22;8570;52.380;4.654;2022-09-27T07:04:04;11.20;99.90
16907;DHT22;8570;52.380;4.654;2022-09-27T07:09:08;11.30;99.90
16907;DHT22;8570;52.380;4.654;2022-09-27T07:14:10;11.30;99.90
16907;DHT22;8570;52.380;4.654;2022-09-27T07:19:12;11.30;99.90
16907;DHT22;8570;52.380;4.654;2022-09-27T07:24:16;11.40;99.90
16907;DHT22;8570;52.380;4.654;2022-09-27T07:29:18;11.40;99.90
16907;DHT22;8570;52.380;4.654;2022-09-27T07:34:19;11.30;99.90
16907;DHT22;8570;52.380;4.654;2022-09-27T07:39:23;11.30;99.90
16907;DHT22;8570;52.380;4.654;2022-09-27T07:44:25;11.30;99.90
16907;DHT22;8570;52.380;4.654;2022-09-27T07:49:27;11.20;99.90
16907;DHT22;8570;52.380;4.654;2022-09-27T07:54:30;11.30;99.90
16907;DHT22;8570;52.380;4.654;2022-09-27T07:59:33;11.20;99.90
16907;DHT22;8570;52.380;4.654;2022-09-27T08:04:35;11.20;99.90
16907;DHT22;8570;52.380;4.654;2022-09-27T08:09:38;11.20;99.90
16907;DHT22;8570;52.380;4.654;2022-09-27T08:14:40;11.20;99.90
16907;DHT22;8570;52.380;4.654;2022-09-27T08:19:42;11.20;99.90
16907;DHT22;8570;52.380;4.654;2022-09-27T08:24:46;11.20;99.90
16907;DHT22;8570;52.380;4.654;2022-09-27T08:29:48;11.20;99.90
16907;DHT22;8570;52.380;4.654;2022-09-27T08:34:50;11.40;99.90
16907;DHT22;8570;52.380;4.654;2022-09-27T08:39:54;11.50;99.90
16907;DHT22;8570;52.380;4.654;2022-09-27T08:45:00;11.50;99.90
16907;DHT22;8570;52.380;4.654;2022-09-27T08:50:14;11.40;99.90
16907;DHT22;8570;52.380;4.654;2022-09-27T08:55:24;11.30;99.90
16907;DHT22;8570;52.380;4.654;2022-09-27T09:00:28;11.10;99.90
16907;DHT22;8570;52.380;4.654;2022-09-27T09:05:33;10.90;99.90
16907;DHT22;8570;52.380;4.654;2022-09-27T09:10:47;10.70;99.90
16907;DHT22;8570;52.380;4.654;2022-09-27T09:16:12;10.60;99.90
16907;DHT22;8570;52.380;4.654;2022-09-27T09:21:25;10.50;99.90
16907;DHT22;8570;52.380;4.654;2022-09-27T09:26:36;10.40;99.90
16907;DHT22;8570;52.380;4.654;2022-09-27T09:31:41;10.50;99.90
16907;DHT22;8570;52.380;4.654;2022-09-27T09:36:47;10.60;99.90
16907;DHT22;8570;52.380;4.654;2022-09-27T09:42:04;10.70;99.90
16907;DHT22;8570;52.380;4.654;2022-09-27T09:47:12;10.90;99.90
16907;DHT22;8570;52.380;4.654;2022-09-27T09:52:18;11.00;99.90
16907;DHT22;8570;52.380;4.654;2022-09-27T09:57:26;11.10;99.90
16907;DHT22;8570;52.380;4.654;2022-09-27T10:02:31;11.10;99.90
16907;DHT22;8570;52.380;4.654;2022-09-27T10:07:37;11.20;99.90
16907;DHT22;8570;52.380;4.654;2022-09-27T10:12:41;11.30;99.90
16907;DHT22;8570;52.380;4.654;2022-09-27T10:17:47;11.40;99.90
16907;DHT22;8570;52.380;4.654;2022-09-27T10:22:53;11.40;99.90
16907;DHT22;8570;52.380;4.654;2022-09-27T10:28:02;11.40;99.90
16907;DHT22;8570;52.380;4.654;2022-09-27T10:33:06;11.40;99.90
16907;DHT22;8570;52.380;4.654;2022-09-27T10:38:24;11.40;99.90
16907;DHT22;8570;52.380;4.654;2022-09-27T10:43:30;11.30;99.90
16907;DHT22;8570;52.380;4.654;2022-09-27T10:48:32;11.30;99.90
16907;DHT22;8570;52.380;4.654;2022-09-27T10:53:35;11.30;99.90
16907;DHT22;8570;52.380;4.654;2022-09-27T10:58:38;11.30;99.90
16907;DHT22;8570;52.380;4.654;2022-09-27T11:03:47;11.40;99.90
16907;DHT22;8570;52.380;4.654;2022-09-27T11:08:49;11.50;99.90
16907;DHT22;8570;52.380;4.654;2022-09-27T11:14:01;11.50;99.90
16907;DHT22;8570;52.380;4.654;2022-09-27T11:19:10;11.60;99.90
16907;DHT22;8570;52.380;4.654;2022-09-27T11:24:31;11.70;99.90
16907;DHT22;8570;52.380;4.654;2022-09-27T11:29:48;11.80;99.90
16907;DHT22;8570;52.380;4.654;2022-09-27T11:35:09;11.80;99.90
16907;DHT22;8570;52.380;4.654;2022-09-27T11:40:25;11.90;99.90
16907;DHT22;8570;52.380;4.654;2022-09-27T11:45:51;11.90;99.90
16907;DHT22;8570;52.380;4.654;2022-09-27T11:51:04;11.80;99.90
16907;DHT22;8570;52.380;4.654;2022-09-27T11:56:18;11.60;99.90
16907;DHT22;8570;52.380;4.654;2022-09-27T12:01:30;11.40;99.90
16907;DHT22;8570;52.380;4.654;2022-09-27T12:06:42;11.10;99.90
16907;DHT22;8570;52.380;4.654;2022-09-27T12:11:51;10.90;99.90
16907;DHT22;8570;52.380;4.654;2022-09-27T12:16:56;10.70;99.90
16907;DHT22;8570;52.380;4.654;2022-09-27T12:22:03;10.70;99.90
16907;DHT22;8570;52.380;4.654;2022-09-27T12:27:08;10.80;99.90
16907;DHT22;8570;52.380;4.654;2022-09-27T12:32:19;10.90;99.90
16907;DHT22;8570;52.380;4.654;2022-09-27T12:37:26;11.00;99.90
16907;DHT22;8570;52.380;4.654;2022-09-27T12:42:32;11.00;99.90
16907;DHT22;8570;52.380;4.654;2022-09-27T12:48:03;11.00;99.90
16907;DHT22;8570;52.380;4.654;2022-09-27T12:53:14;11.10;99.90
16907;DHT22;8570;52.380;4.654;2022-09-27T12:58:47;11.20;99.90
16907;DHT22;8570;52.380;4.654;2022-09-27T13:04:19;11.20;99.90
16907;DHT22;8570;52.380;4.654;2022-09-27T13:09:44;11.40;99.90
16907;DHT22;8570;52.380;4.654;2022-09-27T13:14:58;11.70;99.90
16907;DHT22;8570;52.380;4.654;2022-09-27T13:20:37;12.10;99.90
16907;DHT22;8570;52.380;4.654;2022-09-27T13:25:47;12.20;99.90
16907;DHT22;8570;52.380;4.654;2022-09-27T13:30:49;12.30;99.90
16907;DHT22;8570;52.380;4.654;2022-09-27T13:36:12;12.30;99.90
16907;DHT22;8570;52.380;4.654;2022-09-27T13:41:17;12.40;99.90
16907;DHT22;8570;52.380;4.654;2022-09-27T13:46:25;12.50;99.90
16907;DHT22;8570;52.380;4.654;2022-09-27T13:51:38;12.50;99.90
16907;DHT22;8570;52.380;4.654;2022-09-27T13:56:50;12.60;99.90
16907;DHT22;8570;52.380;4.654;2022-09-27T14:01:55;12.60;99.90
16907;DHT22;8570;52.380;4.654;2022-09-27T14:07:02;12.60;99.90
16907;DHT22;8570;52.380;4.654;2022-09-27T14:12:09;12.70;99.90
16907;DHT22;8570;52.380;4.654;2022-09-27T14:17:12;12.70;99.90
16907;DHT22;8570;52.380;4.654;2022-09-27T14:22:17;12.80;99.90
16907;DHT22;8570;52.380;4.654;2022-09-27T14:27:21;12.90;99.90
16907;DHT22;8570;52.380;4.654;2022-09-27T14:32:25;12.90;99.90
16907;DHT22;8570;52.380;4.654;2022-09-27T14:37:28;12.90;99.90
16907;DHT22;8570;52.380;4.654;2022-09-27T14:42:33;12.80;99.90
16907;DHT22;8570;52.380;4.654;2022-09-27T14:47:44;12.80;99.90
16907;DHT22;8570;52.380;4.654;2022-09-27T14:52:50;12.80;99.90
16907;DHT22;8570;52.380;4.654;2022-09-27T14:57:57;12.80;99.90
16907;DHT22;8570;52.380;4.654;2022-09-27T15:03:01;12.70;99.90
16907;DHT22;8570;52.380;4.654;2022-09-27T15:08:06;12.70;99.90
16907;DHT22;8570;52.380;4.654;2022-09-27T15:13:14;12.70;99.90
16907;DHT22;8570;52.380;4.654;2022-09-27T15:18:39;12.70;99.90
16907;DHT22;8570;52.380;4.654;2022-09-27T15:23:44;12.70;99.90
16907;DHT22;8570;52.380;4.654;2022-09-27T15:28:50;12.70;99.90
16907;DHT22;8570;52.380;4.654;2022-09-27T15:33:54;12.70;99.90
16907;DHT22;8570;52.380;4.654;2022-09-27T15:39:06;12.60;99.90
16907;DHT22;8570;52.380;4.654;2022-09-27T15:44:44;12.40;99.90
16907;DHT22;8570;52.380;4.654;2022-09-27T15:49:46;12.10;99.90
16907;DHT22;8570;52.380;4.654;2022-09-27T15:54:49;11.90;99.90
16907;DHT22;8570;52.380;4.654;2022-09-27T15:59:52;11.80;99.90
16907;DHT22;8570;52.380;4.654;2022-09-27T16:04:54;11.70;99.90
16907;DHT22;8570;52.380;4.654;2022-09-27T16:09:57;11.60;99.90
16907;DHT22;8570;52.380;4.654;2022-09-27T16:14:59;11.60;99.90
16907;DHT22;8570;52.380;4.654;2022-09-27T16:20:01;11.50;99.90
16907;DHT22;8570;52.380;4.654;2022-09-27T16:25:05;11.50;99.90
16907;DHT22;8570;52.380;4.654;2022-09-27T16:30:08;11.50;99.90
16907;DHT22;8570;52.380;4.654;2022-09-27T16:35:11;11.60;99.90
16907;DHT22;8570;52.380;4.654;2022-09-27T16:40:15;11.90;99.90
16907;DHT22;8570;52.380;4.654;2022-09-27T16:45:18;11.90;99.90
16907;DHT22;8570;52.380;4.654;2022-09-27T16:50:20;11.80;99.90
16907;DHT22;8570;52.380;4.654;2022-09-27T16:55:40;11.70;99.90
16907;DHT22;8570;52.380;4.654;2022-09-27T17:00:42;11.90;99.90
16907;DHT22;8570;52.380;4.654;2022-09-27T17:05:46;12.00;99.90
16907;DHT22;8570;52.380;4.654;2022-09-27T17:10:49;11.90;99.90
16907;DHT22;8570;52.380;4.654;2022-09-27T17:15:51;11.80;99.90
16907;DHT22;8570;52.380;4.654;2022-09-27T17:20:59;11.70;99.90
16907;DHT22;8570;52.380;4.654;2022-09-27T17:26:08;11.70;99.90
16907;DHT22;8570;52.380;4.654;2022-09-27T17:31:11;11.70;99.90
16907;DHT22;8570;52.380;4.654;2022-09-27T17:36:17;11.70;99.90
16907;DHT22;8570;52.380;4.654;2022-09-27T17:41:22;11.60;99.90
16907;DHT22;8570;52.380;4.654;2022-09-27T17:46:26;11.60;99.90
16907;DHT22;8570;52.380;4.654;2022-09-27T17:51:28;11.70;99.90
16907;DHT22;8570;52.380;4.654;2022-09-27T17:56:34;12.00;99.90
16907;DHT22;8570;52.380;4.654;2022-09-27T18:01:38;12.10;99.90
16907;DHT22;8570;52.380;4.654;2022-09-27T18:06:41;11.90;99.90
16907;DHT22;8570;52.380;4.654;2022-09-27T18:11:48;11.80;99.90
16907;DHT22;8570;52.380;4.654;2022-09-27T18:16:50;11.70;99.90
16907;DHT22;8570;52.380;4.654;2022-09-27T18:21:53;11.60;99.90
16907;DHT22;8570;52.380;4.654;2022-09-27T18:26:57;11.60;99.90
16907;DHT22;8570;52.380;4.654;2022-09-27T18:31:59;11.50;99.90
16907;DHT22;8570;52.380;4.654;2022-09-27T18:37:01;11.50;99.90
16907;DHT22;8570;52.380;4.654;2022-09-27T18:42:05;11.40;99.90
16907;DHT22;8570;52.380;4.654;2022-09-27T18:47:08;11.30;99.90
16907;DHT22;8570;52.380;4.654;2022-09-27T18:52:10;11.30;99.90
16907;DHT22;8570;52.380;4.654;2022-09-27T18:57:13;11.20;99.90
16907;DHT22;8570;52.380;4.654;2022-09-27T19:02:15;11.10;99.90
16907;DHT22;8570;52.380;4.654;2022-09-27T19:07:17;11.10;99.90
16907;DHT22;8570;52.380;4.654;2022-09-27T19:12:21;11.00;99.90
16907;DHT22;8570;52.380;4.654;2022-09-27T19:17:22;10.90;99.90
16907;DHT22;8570;52.380;4.654;2022-09-27T19:22:24;10.90;99.90
16907;DHT22;8570;52.380;4.654;2022-09-27T19:27:29;10.80;99.90
16907;DHT22;8570;52.380;4.654;2022-09-27T19:32:31;10.80;99.90
16907;DHT22;8570;52.380;4.654;2022-09-27T19:37:33;10.70;99.90
16907;DHT22;8570;52.380;4.654;2022-09-27T19:42:36;10.70;99.90
16907;DHT22;8570;52.380;4.654;2022-09-27T19:47:38;10.70;99.90
16907;DHT22;8570;52.380;4.654;2022-09-27T19:52:40;10.70;99.90
16907;DHT22;8570;52.380;4.654;2022-09-27T19:57:44;10.70;99.90
16907;DHT22;8570;52.380;4.654;2022-09-27T20:02:46;10.70;99.90
16907;DHT22;8570;52.380;4.654;2022-09-27T20:07:48;10.70;99.90
16907;DHT22;8570;52.380;4.654;2022-09-27T20:12:54;10.60;99.90
16907;DHT22;8570;52.380;4.654;2022-09-27T20:18:14;10.60;99.90
16907;DHT22;8570;52.380;4.654;2022-09-27T20:23:16;10.50;99.90
16907;DHT22;8570;52.380;4.654;2022-09-27T20:28:21;10.50;99.90
16907;DHT22;8570;52.380;4.654;2022-09-27T20:33:22;10.50;99.90
16907;DHT22;8570;52.380;4.654;2022-09-27T20:38:44;10.50;99.90
16907;DHT22;8570;52.380;4.654;2022-09-27T20:43:50;10.50;99.90
16907;DHT22;8570;52.380;4.654;2022-09-27T20:48:54;10.40;99.90
16907;DHT22;8570;52.380;4.654;2022-09-27T20:53:56;10.40;99.90
16907;DHT22;8570;52.380;4.654;2022-09-27T20:59:01;10.30;99.90
16907;DHT22;8570;52.380;4.654;2022-09-27T21:04:04;10.20;99.90
16907;DHT22;8570;52.380;4.654;2022-09-27T21:09:06;10.20;99.90
16907;DHT22;8570;52.380;4.654;2022-09-27T21:14:10;10.10;99.90
16907;DHT22;8570;52.380;4.654;2022-09-27T21:19:12;10.10;99.90
16907;DHT22;8570;52.380;4.654;2022-09-27T21:24:14;10.00;99.90
16907;DHT22;8570;52.380;4.654;2022-09-27T21:29:17;10.00;99.90
16907;DHT22;8570;52.380;4.654;2022-09-27T21:34:20;10.00;99.90
16907;DHT22;8570;52.380;4.654;2022-09-27T21:39:22;10.00;99.90
16907;DHT22;8570;52.380;4.654;2022-09-27T21:44:25;10.00;99.90
16907;DHT22;8570;52.380;4.654;2022-09-27T21:49:27;10.10;99.90
16907;DHT22;8570;52.380;4.654;2022-09-27T21:54:29;10.10;99.90
16907;DHT22;8570;52.380;4.654;2022-09-27T21:59:33;10.10;99.90
16907;DHT22;8570;52.380;4.654;2022-09-27T22:04:35;10.10;99.90
16907;DHT22;8570;52.380;4.654;2022-09-27T22:09:39;10.10;99.90
16907;DHT22;8570;52.380;4.654;2022-09-27T22:14:42;10.00;99.90
16907;DHT22;8570;52.380;4.654;2022-09-27T22:19:47;9.90;99.90
16907;DHT22;8570;52.380;4.654;2022-09-27T22:24:48;9.80;99.90
16907;DHT22;8570;52.380;4.654;2022-09-27T22:29:52;9.80;99.90
16907;DHT22;8570;52.380;4.654;2022-09-27T22:34:53;9.80;99.90
16907;DHT22;8570;52.380;4.654;2022-09-27T22:39:55;9.70;99.90
16907;DHT22;8570;52.380;4.654;2022-09-27T22:44:59;9.70;99.90
16907;DHT22;8570;52.380;4.654;2022-09-27T22:50:00;9.70;99.90
16907;DHT22;8570;52.380;4.654;2022-09-27T22:55:02;9.60;99.90
16907;DHT22;8570;52.380;4.654;2022-09-27T23:00:07;9.60;99.90
16907;DHT22;8570;52.380;4.654;2022-09-27T23:05:09;9.60;99.90
16907;DHT22;8570;52.380;4.654;2022-09-27T23:10:10;9.50;99.90
16907;DHT22;8570;52.380;4.654;2022-09-27T23:15:14;9.50;99.90
16907;DHT22;8570;52.380;4.654;2022-09-27T23:20:18;9.50;99.90
16907;DHT22;8570;52.380;4.654;2022-09-27T23:25:19;9.50;99.90
16907;DHT22;8570;52.380;4.654;2022-09-27T23:30:23;9.50;99.90
16907;DHT22;8570;52.380;4.654;2022-09-27T23:35:28;9.50;99.90
16907;DHT22;8570;52.380;4.654;2022-09-27T23:40:30;9.50;99.90
16907;DHT22;8570;52.380;4.654;2022-09-27T23:45:36;9.60;99.90
16907;DHT22;8570;52.380;4.654;2022-09-27T23:50:41;9.60;99.90
16907;DHT22;8570;52.380;4.654;2022-09-27T23:55:43;9.60;99.90
